createdAt,value
2022-11-25T00:03:42.104Z,71.08
2022-11-25T00:08:46.176Z,71.28
2022-11-25T00:13:48.681Z,71.46
2022-11-25T00:18:52.479Z,71.59
2022-11-25T00:24:04.428Z,71.53
2022-11-25T00:29:10.511Z,71.34
2022-11-25T00:34:14.018Z,71.26
2022-11-25T00:39:17.929Z,71.38
2022-11-25T00:44:39.145Z,71.12
2022-11-25T00:49:50.251Z,71.42
2022-11-25T00:54:52.521Z,71.71
2022-11-25T00:59:54.166Z,71.59
2022-11-25T01:04:55.786Z,71.94
2022-11-25T01:09:57.400Z,71.99
2022-11-25T01:14:59.005Z,71.77
2022-11-25T01:20:00.614Z,71.73
2022-11-25T01:25:02.245Z,71.70
2022-11-25T01:30:04.337Z,71.53
2022-11-25T01:35:07.157Z,71.55
2022-11-25T01:40:10.081Z,71.43
2022-11-25T01:45:26.706Z,71.66
2022-11-25T01:50:33.414Z,72.00
2022-11-25T01:55:38.482Z,71.81
2022-11-25T02:00:40.186Z,71.76
2022-11-25T02:06:02.812Z,71.60
2022-11-25T02:11:04.798Z,71.53
2022-11-25T02:16:06.558Z,71.41
2022-11-25T02:21:09.096Z,71.39
2022-11-25T02:26:11.120Z,71.43
2022-11-25T02:31:18.218Z,71.51
2022-11-25T02:36:22.374Z,71.66
2022-11-25T02:41:38.661Z,72.05
2022-11-25T02:46:40.376Z,72.03
2022-11-25T02:51:45.071Z,71.66
2022-11-25T02:56:46.893Z,71.67
2022-11-25T03:01:48.515Z,71.74
2022-11-25T03:06:50.133Z,71.62
2022-11-25T03:12:10.204Z,71.86
2022-11-25T03:17:11.910Z,71.68
2022-11-25T03:22:13.614Z,72.03
2022-11-25T03:27:15.245Z,72.07
2022-11-25T03:32:17.007Z,72.29
2022-11-25T03:37:19.017Z,71.96
2022-11-25T03:42:20.645Z,71.79
2022-11-25T03:47:22.411Z,72.01
2022-11-25T03:52:24.469Z,72.05
2022-11-25T03:57:26.097Z,72.37
2022-11-25T04:02:27.784Z,72.49
2022-11-25T04:07:29.545Z,72.58
2022-11-25T04:12:46.346Z,72.61
2022-11-25T04:17:48.058Z,72.38
2022-11-25T04:22:50.071Z,72.00
2022-11-25T04:27:51.670Z,72.11
2022-11-25T04:32:53.411Z,72.42
2022-11-25T04:37:55.028Z,72.57
2022-11-25T04:43:03.417Z,72.44
2022-11-25T04:48:06.402Z,72.64
2022-11-25T04:53:08.004Z,72.78
2022-11-25T04:58:12.958Z,72.83
2022-11-25T05:03:14.558Z,72.73
2022-11-25T05:08:16.145Z,72.71
2022-11-25T05:13:17.726Z,72.44
2022-11-25T05:18:19.499Z,72.26
2022-11-25T05:23:21.097Z,72.48
2022-11-25T05:28:22.698Z,72.78
2022-11-25T05:33:24.577Z,72.80
2022-11-25T05:38:27.223Z,72.68
2022-11-25T05:43:28.858Z,72.46
2022-11-25T05:48:30.499Z,72.30
2022-11-25T05:53:32.610Z,72.33
2022-11-25T05:58:34.306Z,71.84
2022-11-25T06:03:37.011Z,71.92
2022-11-25T06:08:39.637Z,72.02
2022-11-25T06:13:44.079Z,72.35
2022-11-25T06:18:46.186Z,72.29
2022-11-25T06:23:47.795Z,72.08
2022-11-25T06:28:53.657Z,72.25
2022-11-25T06:33:55.444Z,72.10
2022-11-25T06:38:57.058Z,71.84
2022-11-25T06:43:58.654Z,72.17
2022-11-25T06:49:00.288Z,72.48
2022-11-25T06:54:01.890Z,72.29
2022-11-25T06:59:03.572Z,72.21
2022-11-25T07:04:05.436Z,71.72
2022-11-25T07:09:07.141Z,72.08
2022-11-25T07:14:13.929Z,72.42
2022-11-25T07:19:17.647Z,72.74
2022-11-25T07:24:19.258Z,72.95
2022-11-25T07:29:51.545Z,72.96
2022-11-25T07:34:42.577Z,72.58
2022-11-25T07:39:44.159Z,72.11
2022-11-25T07:44:45.769Z,71.94
2022-11-25T07:49:47.482Z,71.85
2022-11-25T07:54:49.057Z,71.62
2022-11-25T07:59:50.646Z,71.82
2022-11-25T08:04:52.231Z,71.94
2022-11-25T08:09:53.825Z,72.14
2022-11-25T08:14:55.845Z,71.78
2022-11-25T08:19:57.493Z,71.67
2022-11-25T08:24:59.126Z,71.47
2022-11-25T08:30:00.771Z,71.36
2022-11-25T08:35:02.429Z,71.20
2022-11-25T08:40:04.800Z,71.08
2022-11-25T08:45:08.932Z,71.34
2022-11-25T08:50:13.359Z,71.49
2022-11-25T08:55:15.604Z,71.64
2022-11-25T09:00:17.802Z,71.52
2022-11-25T09:05:19.489Z,71.88
2022-11-25T09:10:21.154Z,71.30
2022-11-25T09:15:22.963Z,70.77
2022-11-25T09:20:24.702Z,70.68
2022-11-25T09:25:27.012Z,70.54
2022-11-25T09:30:28.762Z,70.45
2022-11-25T09:35:30.372Z,70.44
2022-11-25T09:41:05.717Z,70.18
2022-11-25T09:46:45.289Z,70.20
2022-11-25T09:52:11.936Z,70.19
2022-11-25T09:57:29.209Z,70.20
2022-11-25T10:02:42.626Z,69.87
2022-11-25T10:07:52.144Z,69.68
2022-11-25T10:12:57.285Z,69.61
2022-11-25T10:18:27.030Z,69.74
2022-11-25T10:23:34.530Z,69.92
2022-11-25T10:28:37.727Z,69.98
2022-11-25T10:33:53.647Z,70.91
2022-11-25T10:39:04.073Z,70.76
2022-11-25T10:44:20.524Z,70.34
2022-11-25T10:49:41.026Z,70.89
2022-11-25T10:54:55.879Z,70.95
2022-11-25T10:59:59.827Z,71.42
2022-11-25T11:05:07.934Z,71.73
2022-11-25T11:10:25.987Z,70.72
2022-11-25T11:15:46.422Z,71.09
2022-11-25T11:20:52.426Z,71.03
2022-11-25T11:26:09.052Z,71.28
2022-11-25T11:31:23.799Z,71.88
2022-11-25T11:37:21.371Z,72.28
2022-11-25T11:43:26.437Z,72.35
2022-11-25T11:49:20.140Z,72.77
2022-11-25T11:54:36.429Z,72.27
2022-11-25T11:59:54.807Z,71.85
2022-11-25T12:05:02.404Z,71.46
2022-11-25T12:10:40.056Z,71.30
2022-11-25T12:16:13.068Z,71.62
2022-11-25T12:21:50.573Z,71.57
2022-11-25T12:27:18.363Z,71.40
2022-11-25T12:32:44.572Z,71.91
2022-11-25T12:38:01.578Z,72.54
2022-11-25T12:43:29.412Z,72.10
2022-11-25T12:48:31.763Z,72.15
2022-11-25T12:53:49.966Z,72.35
2022-11-25T12:59:18.004Z,72.24
2022-11-25T13:04:50.123Z,72.15
2022-11-25T13:10:36.215Z,72.21
2022-11-25T13:15:45.399Z,71.82
2022-11-25T13:20:54.983Z,71.86
2022-11-25T13:26:33.411Z,72.08
2022-11-25T13:31:59.482Z,72.97
2022-11-25T13:37:36.533Z,73.15
2022-11-25T13:42:44.031Z,73.32
2022-11-25T13:47:48.613Z,73.33
2022-11-25T13:53:18.406Z,72.96
2022-11-25T13:58:30.859Z,72.65
2022-11-25T14:03:32.449Z,72.99
2022-11-25T14:09:14.419Z,72.93
2022-11-25T14:15:08.273Z,73.14
2022-11-25T14:21:04.051Z,73.04
2022-11-25T14:26:49.616Z,73.37
2022-11-25T14:31:58.990Z,73.06
2022-11-25T14:37:17.026Z,73.34
2022-11-25T14:42:22.627Z,73.17
2022-11-25T14:47:33.298Z,73.01
2022-11-25T14:52:37.617Z,73.07
2022-11-25T14:57:44.292Z,73.06
2022-11-25T15:02:56.465Z,73.35
2022-11-25T15:08:00.582Z,73.72
2022-11-25T15:13:13.457Z,73.87
2022-11-25T15:18:21.265Z,73.52
2022-11-25T15:23:34.085Z,73.49
2022-11-25T15:28:37.971Z,72.83
2022-11-25T15:33:39.997Z,73.50
2022-11-25T15:38:44.819Z,74.17
2022-11-25T15:43:54.689Z,74.57
2022-11-25T15:49:05.291Z,74.93
2022-11-25T15:54:12.938Z,75.21
2022-11-25T15:59:59.812Z,75.90
2022-11-25T16:05:16.121Z,75.12
2022-11-25T16:10:27.891Z,74.58
2022-11-25T16:16:00.331Z,74.26
2022-11-25T16:21:09.655Z,74.37
2022-11-25T16:26:11.199Z,74.30
2022-11-25T16:31:16.782Z,74.60
2022-11-25T16:36:18.764Z,74.53
2022-11-25T16:41:24.494Z,74.54
2022-11-25T16:46:26.873Z,75.00
2022-11-25T16:51:28.700Z,75.17
2022-11-25T16:56:30.326Z,75.48
2022-11-25T17:01:33.782Z,75.56
2022-11-25T17:06:36.725Z,75.82
2022-11-25T17:11:53.885Z,75.65
2022-11-25T17:16:55.683Z,75.57
2022-11-25T17:21:57.609Z,75.67
2022-11-25T17:27:05.078Z,75.47
2022-11-25T17:32:06.936Z,75.45
2022-11-25T17:37:22.182Z,75.68
2022-11-25T17:42:31.357Z,75.61
2022-11-25T17:47:33.004Z,75.26
2022-11-25T17:52:34.617Z,75.15
2022-11-25T17:57:36.711Z,75.73
2022-11-25T18:02:39.155Z,75.67
2022-11-25T18:07:43.675Z,75.29
2022-11-25T18:12:48.161Z,75.84
2022-11-25T18:17:51.075Z,75.41
2022-11-25T18:22:53.216Z,75.50
2022-11-25T18:27:56.309Z,75.52
2022-11-25T18:32:57.931Z,75.70
2022-11-25T18:37:59.741Z,76.28
2022-11-25T18:43:03.977Z,76.84
2022-11-25T18:48:14.291Z,76.96
2022-11-25T18:53:16.303Z,76.35
2022-11-25T18:58:21.285Z,75.72
2022-11-25T19:03:25.346Z,76.03
2022-11-25T19:08:27.000Z,75.92
2022-11-25T19:13:35.041Z,76.28
2022-11-25T19:18:36.814Z,76.06
2022-11-25T19:23:38.418Z,76.04
2022-11-25T19:28:41.295Z,75.93
2022-11-25T19:33:46.548Z,75.68
2022-11-25T19:38:48.140Z,75.38
2022-11-25T19:43:49.911Z,75.04
2022-11-25T19:48:53.728Z,75.17
2022-11-25T19:53:55.233Z,75.13
2022-11-25T19:58:56.915Z,75.27
2022-11-25T20:03:58.929Z,75.58
2022-11-25T20:09:06.460Z,75.67
2022-11-25T20:14:09.336Z,75.23
2022-11-25T20:19:17.389Z,74.85
2022-11-25T20:24:20.128Z,74.58
2022-11-25T20:29:26.074Z,74.47
2022-11-25T20:34:36.145Z,74.67
2022-11-25T20:39:41.747Z,74.29
2022-11-25T20:44:43.538Z,74.90
2022-11-25T20:49:46.745Z,75.54
2022-11-25T20:54:48.413Z,75.61
2022-11-25T20:59:50.122Z,75.79
2022-11-25T21:04:51.695Z,75.76
2022-11-25T21:09:53.351Z,75.64
2022-11-25T21:14:54.935Z,75.08
2022-11-25T21:19:56.526Z,75.56
2022-11-25T21:24:58.357Z,75.82
2022-11-25T21:29:59.989Z,76.09
2022-11-25T21:35:03.383Z,76.25
2022-11-25T21:40:06.396Z,76.17
2022-11-25T21:45:16.172Z,76.68
2022-11-25T21:50:19.605Z,76.16
2022-11-25T21:55:21.286Z,76.55
2022-11-25T22:00:25.296Z,76.59
2022-11-25T22:05:26.978Z,76.80
2022-11-25T22:10:28.656Z,76.90
2022-11-25T22:15:30.384Z,76.86
2022-11-25T22:20:35.092Z,76.90
2022-11-25T22:25:36.829Z,76.35
2022-11-25T22:30:38.493Z,76.35
2022-11-25T22:35:40.131Z,76.12
2022-11-25T22:40:51.594Z,76.09
2022-11-25T22:45:54.223Z,76.21
2022-11-25T22:50:55.968Z,76.55
2022-11-25T22:55:57.936Z,77.01
2022-11-25T23:00:59.687Z,77.16
2022-11-25T23:06:02.654Z,76.73
2022-11-25T23:11:05.389Z,76.33
2022-11-25T23:16:10.472Z,76.00
2022-11-25T23:21:27.270Z,75.90
2022-11-25T23:31:50.658Z,76.05
2022-11-25T23:36:52.382Z,75.81
2022-11-25T23:41:54.103Z,75.50
2022-11-25T23:47:05.880Z,75.40
2022-11-25T23:52:10.844Z,75.62
2022-11-25T23:57:25.726Z,75.59
